Time;durP1;ratioP1;P1;durP2;ratioP2;P2;SDS_P1;SDS_P2;PMS_P1;PMS_P2;Temp;Humidity;BMP_temperature;BMP_pressure;BME280_temperature;BME280_humidity;BME280_pressure;Samples;Min_cycle;Max_cycle;Signal;HPM_P1;HPM_P2
2022/10/10 00:00:42;;;;;;;;;16.00;15.00;;;;;11.52;68.90;100438.78;5086956;27;45472;-85
2022/10/10 00:03:08;;;;;;;;;17.25;16.75;;;;;11.24;69.17;100387.47;5076519;27;46419;-85
2022/10/10 00:05:35;;;;;;;;;17.50;16.00;;;;;11.26;68.86;100388.31;5095759;27;45474;-85
2022/10/10 00:08:00;;;;;;;;;18.75;15.25;;;;;11.51;68.91;100423.81;5096731;27;45244;-85
2022/10/10 00:10:26;;;;;;;;;19.25;19.25;;;;;11.11;69.60;100363.97;5095860;27;45588;-85
2022/10/10 00:12:51;;;;;;;;;17.00;16.00;;;;;11.66;69.04;100445.47;5095533;27;45335;-85
2022/10/10 00:15:17;;;;;;;;;16.00;14.00;;;;;12.30;68.73;100554.16;5076512;27;45877;-85
2022/10/10 00:17:43;;;;;;;;;18.50;17.25;;;;;11.95;68.74;100486.22;5076428;28;45374;-85
2022/10/10 00:20:10;;;;;;;;;13.25;12.50;;;;;11.27;69.15;100379.47;5079106;28;45344;-86
2022/10/10 00:22:36;;;;;;;;;13.25;12.00;;;;;12.17;68.86;100513.00;5077411;28;47590;-85
2022/10/10 00:25:01;;;;;;;;;16.25;13.00;;;;;11.68;69.05;100441.88;5059894;28;45458;-85
2022/10/10 00:27:29;;;;;;;;;18.00;15.00;;;;;12.23;68.96;100529.59;5079687;27;45423;-86
2022/10/10 00:29:55;;;;;;;;;14.50;14.50;;;;;12.16;68.66;100517.44;5088417;27;45347;-85
2022/10/10 00:32:20;;;;;;;;;20.50;13.50;;;;;11.90;68.79;100476.63;5056562;28;47203;-85
2022/10/10 00:34:45;;;;;;;;;14.50;14.00;;;;;12.12;69.31;100521.09;5071626;28;45495;-84
2022/10/10 00:37:10;;;;;;;;;16.00;15.75;;;;;11.77;69.45;100461.97;5064665;28;45409;-85
2022/10/10 00:39:36;;;;;;;;;18.75;17.50;;;;;11.93;69.09;100488.06;5077190;28;45501;-85
2022/10/10 00:42:01;;;;;;;;;18.00;16.50;;;;;12.38;68.95;100569.84;5078539;27;45512;-86
2022/10/10 00:44:27;;;;;;;;;16.00;15.50;;;;;12.37;69.03;100581.34;5076235;28;45347;-85
2022/10/10 00:46:52;;;;;;;;;15.00;15.00;;;;;12.06;68.12;100521.25;5079219;28;45428;-86
2022/10/10 00:49:21;;;;;;;;;20.50;18.50;;;;;12.18;69.43;100539.47;5077917;27;45558;-86
2022/10/10 00:51:50;;;;;;;;;19.75;15.00;;;;;11.83;69.25;100488.28;5078997;28;46862;-86
2022/10/10 00:54:19;;;;;;;;;20.25;19.00;;;;;11.64;68.68;100468.47;5085899;28;46117;-84
2022/10/10 00:56:53;;;;;;;;;22.75;20.00;;;;;11.80;69.73;100492.78;5083146;27;44794;-85
2022/10/10 00:59:19;;;;;;;;;17.25;17.25;;;;;11.70;70.07;100486.84;5081094;28;45424;-86
2022/10/10 01:01:45;;;;;;;;;17.75;15.25;;;;;12.16;70.29;100558.94;5077886;28;47823;-85
2022/10/10 01:04:30;;;;;;;;;18.00;18.00;;;;;12.14;69.72;100559.00;5071611;28;45449;-85
2022/10/10 01:06:57;;;;;;;;;15.25;15.25;;;;;11.85;70.23;100512.91;5056213;28;45339;-85
2022/10/10 01:09:23;;;;;;;;;20.75;15.75;;;;;11.06;69.48;100387.03;5057847;28;45345;-85
2022/10/10 01:12:09;;;;;;;;;21.50;18.25;;;;;10.87;69.22;100354.91;5055919;28;47288;-86
2022/10/10 01:14:40;;;;;;;;;21.75;19.50;;;;;12.08;69.52;100551.22;5067473;28;45415;-86
2022/10/10 01:17:16;;;;;;;;;22.25;18.50;;;;;11.31;70.18;100434.03;5080146;28;45431;-86
2022/10/10 01:20:12;;;;;;;;;22.50;20.25;;;;;12.03;70.25;100550.47;5078587;27;45380;-85
2022/10/10 01:22:44;;;;;;;;;18.25;17.00;;;;;12.00;70.18;100548.78;5076688;27;47122;-86
2022/10/10 01:25:27;;;;;;;;;24.00;22.50;;;;;11.60;70.36;100490.63;5055926;28;45633;-86
2022/10/10 01:28:01;;;;;;;;;24.00;22.25;;;;;11.47;70.46;100471.56;5055107;28;45387;-85
2022/10/10 01:30:28;;;;;;;;;35.25;30.75;;;;;10.96;70.69;100391.69;5056653;28;45542;-86
2022/10/10 01:33:10;;;;;;;;;25.75;20.25;;;;;11.91;70.51;100547.19;5089546;27;45674;-86
2022/10/10 01:35:58;;;;;;;;;17.25;17.25;;;;;11.90;70.62;100552.53;5096377;27;45541;-86
2022/10/10 01:38:29;;;;;;;;;23.75;20.25;;;;;11.72;70.74;100522.97;5080853;27;45303;-86
2022/10/10 01:41:26;;;;;;;;;19.25;17.25;;;;;11.51;71.15;100487.31;5097040;27;45676;-86
2022/10/10 01:43:56;;;;;;;;;20.25;20.25;;;;;11.40;71.02;100468.19;5079395;27;47067;-86
2022/10/10 01:46:22;;;;;;;;;19.00;17.50;;;;;10.74;71.34;100364.88;5077737;27;45406;-86
2022/10/10 01:48:51;;;;;;;;;13.75;10.50;;;;;11.23;71.37;100447.44;5097506;27;45424;-85
2022/10/10 01:51:28;;;;;;;;;20.25;18.75;;;;;11.82;70.90;100544.78;5097385;27;45316;-85
2022/10/10 01:54:27;;;;;;;;;15.75;13.75;;;;;11.81;71.76;100542.16;5096154;27;48005;-86
2022/10/10 01:57:11;;;;;;;;;19.25;18.50;;;;;11.79;71.78;100539.56;5085714;27;45602;-86
2022/10/10 01:59:47;;;;;;;;;20.75;19.75;;;;;11.76;71.80;100544.09;5095643;27;45514;-86
2022/10/10 02:02:37;;;;;;;;;18.75;13.00;;;;;11.74;72.07;100544.13;5079447;27;45439;-85
2022/10/10 02:05:24;;;;;;;;;15.00;13.75;;;;;11.44;72.09;100493.69;5099379;27;45342;-85
2022/10/10 02:07:57;;;;;;;;;19.00;18.50;;;;;11.69;71.68;100535.41;5093648;27;45788;-85
2022/10/10 02:10:30;;;;;;;;;21.75;19.50;;;;;10.98;71.88;100412.81;5077010;27;45376;-85
2022/10/10 02:12:59;;;;;;;;;21.25;17.50;;;;;11.66;72.63;100543.41;5068780;28;45423;-86
2022/10/10 02:15:28;;;;;;;;;19.25;18.50;;;;;11.65;72.23;100541.72;5065023;28;47374;-85
2022/10/10 02:17:56;;;;;;;;;16.25;12.50;;;;;11.64;72.08;100538.16;5058723;27;45349;-85
2022/10/10 02:20:24;;;;;;;;;19.50;18.75;;;;;11.65;71.34;100544.34;5057925;28;45287;-85
2022/10/10 02:22:50;;;;;;;;;17.75;16.50;;;;;11.04;71.91;100449.69;5094205;27;45475;-86
2022/10/10 02:25:20;;;;;;;;;17.75;15.50;;;;;11.62;71.91;100549.72;5078189;27;47092;-85
2022/10/10 02:27:53;;;;;;;;;22.75;17.00;;;;;11.36;72.50;100508.88;5097253;27;45417;-85
2022/10/10 02:30:19;;;;;;;;;22.00;19.25;;;;;11.61;72.60;100547.97;5077650;27;45548;-85
2022/10/10 02:32:48;;;;;;;;;19.75;18.00;;;;;10.43;72.44;100346.22;5077797;27;45359;-85
2022/10/10 02:35:18;;;;;;;;;18.75;18.75;;;;;11.28;72.74;100484.38;5076253;27;45423;-85
2022/10/10 02:37:46;;;;;;;;;18.00;17.75;;;;;10.61;72.29;100382.81;5059053;28;45494;-85
2022/10/10 02:40:19;;;;;;;;;20.00;17.50;;;;;11.42;72.39;100498.16;5075742;27;45470;-85
2022/10/10 02:42:46;;;;;;;;;19.25;17.75;;;;;10.47;72.63;100354.03;5057953;28;45589;-85
2022/10/10 02:45:12;;;;;;;;;20.00;18.50;;;;;11.12;72.01;100453.00;5058602;27;47979;-85
2022/10/10 02:47:37;;;;;;;;;18.75;16.00;;;;;10.52;72.49;100361.88;5098235;27;45500;-85
2022/10/10 02:50:02;;;;;;;;;17.00;10.00;;;;;10.43;72.54;100340.94;5098995;27;45284;-86
2022/10/10 02:52:28;;;;;;;;;23.50;19.00;;;;;11.11;72.90;100461.81;5094233;27;45499;-85
2022/10/10 02:54:53;;;;;;;;;14.50;14.00;;;;;11.31;73.06;100497.53;5097067;27;45987;-85
2022/10/10 02:57:18;;;;;;;;;18.25;15.75;;;;;10.41;71.80;100343.63;5097110;27;45323;-85
2022/10/10 02:59:44;;;;;;;;;18.00;17.00;;;;;10.64;72.32;100385.41;5092707;27;45225;-86
2022/10/10 03:02:09;;;;;;;;;16.00;16.00;;;;;11.04;72.54;100465.56;5069629;27;45189;-86
2022/10/10 03:04:35;;;;;;;;;25.25;23.50;;;;;11.55;72.12;100560.47;5076295;28;45501;-86
2022/10/10 03:07:02;;;;;;;;;20.00;18.75;;;;;11.09;72.92;100473.38;5075786;28;45433;-85
2022/10/10 03:09:27;;;;;;;;;17.75;16.75;;;;;11.25;72.84;100495.03;5058819;27;45439;-86
2022/10/10 03:11:53;;;;;;;;;20.00;20.00;;;;;11.04;72.72;100468.19;5074083;27;45381;-84
2022/10/10 03:14:18;;;;;;;;;17.25;16.50;;;;;10.35;72.63;100349.03;5075847;28;45435;-85
2022/10/10 03:16:43;;;;;;;;;18.25;18.25;;;;;10.69;72.98;100400.25;5057354;28;46033;-85
2022/10/10 03:19:08;;;;;;;;;20.00;17.75;;;;;10.76;72.96;100409.78;5083223;27;45502;-84
2022/10/10 03:21:35;;;;;;;;;16.75;16.75;;;;;11.53;73.44;100537.56;5077809;27;47342;-85
2022/10/10 03:24:00;;;;;;;;;21.25;16.25;;;;;11.30;73.31;100498.44;5075376;28;45442;-85
2022/10/10 03:26:25;;;;;;;;;19.25;16.50;;;;;10.62;73.57;100394.25;5076774;28;45304;-85
2022/10/10 03:28:51;;;;;;;;;14.00;14.00;;;;;10.94;73.84;100449.00;5075889;28;45401;-85
2022/10/10 03:31:16;;;;;;;;;16.00;13.25;;;;;10.26;73.63;100336.91;5075488;28;45504;-85
2022/10/10 03:33:42;;;;;;;;;15.75;14.50;;;;;10.24;73.83;100324.63;5087360;27;45684;-85
2022/10/10 03:36:07;;;;;;;;;19.50;17.75;;;;;11.18;74.05;100492.53;5079884;27;45500;-85
2022/10/10 03:38:33;;;;;;;;;20.75;19.00;;;;;10.36;73.79;100361.38;5057890;28;45460;-85
2022/10/10 03:40:58;;;;;;;;;19.75;17.00;;;;;10.72;74.21;100422.22;5057033;28;45399;-85
2022/10/10 03:43:23;;;;;;;;;19.75;18.00;;;;;10.99;74.49;100473.59;5076416;27;45441;-85
2022/10/10 03:45:49;;;;;;;;;18.50;16.75;;;;;10.57;74.30;100394.38;5096080;27;45512;-85
2022/10/10 03:48:15;;;;;;;;;18.75;15.25;;;;;10.58;74.20;100397.84;5087086;27;45497;-85
2022/10/10 03:50:40;;;;;;;;;15.75;15.00;;;;;11.44;74.13;100536.00;5076884;27;45472;-85
2022/10/10 03:53:07;;;;;;;;;17.25;17.25;;;;;11.35;74.61;100517.72;5063904;27;48299;-85
2022/10/10 03:55:32;;;;;;;;;17.75;15.50;;;;;10.72;74.48;100416.03;5058592;28;45485;-85
2022/10/10 03:57:57;;;;;;;;;19.00;17.25;;;;;11.18;73.98;100489.03;5058513;28;45419;-84
2022/10/10 04:00:23;;;;;;;;;14.50;14.50;;;;;10.96;74.03;100447.22;5058202;28;45467;-86
2022/10/10 04:02:48;;;;;;;;;19.50;18.25;;;;;11.26;74.80;100504.72;5075979;27;45486;-85
2022/10/10 04:05:14;;;;;;;;;16.50;15.25;;;;;10.91;74.23;100448.22;5073168;28;45364;-85
2022/10/10 04:07:41;;;;;;;;;19.25;17.75;;;;;11.15;74.62;100492.59;5074970;27;45325;-86
2022/10/10 04:10:07;;;;;;;;;17.75;15.25;;;;;11.13;74.22;100489.13;5094808;27;45260;-85
2022/10/10 04:12:33;;;;;;;;;15.75;14.75;;;;;11.46;74.58;100526.25;5086230;27;46617;-85
2022/10/10 04:14:59;;;;;;;;;18.50;15.00;;;;;11.22;74.37;100473.94;5078187;27;45267;-85
2022/10/10 04:17:24;;;;;;;;;18.25;14.00;;;;;11.17;74.69;100459.06;5095125;27;45200;-85
2022/10/10 04:19:49;;;;;;;;;11.25;11.25;;;;;10.46;74.31;100325.00;5096095;27;45295;-85
2022/10/10 04:22:15;;;;;;;;;16.50;15.75;;;;;11.15;74.81;100437.06;5090204;27;46358;-85
2022/10/10 04:24:41;;;;;;;;;18.25;17.00;;;;;11.33;74.12;100471.91;5074950;27;45449;-85
2022/10/10 04:27:06;;;;;;;;;15.25;14.00;;;;;11.47;74.34;100495.38;5056796;28;45405;-85
2022/10/10 04:29:31;;;;;;;;;14.25;13.25;;;;;10.60;74.67;100359.06;5056461;28;45617;-86
2022/10/10 04:31:57;;;;;;;;;18.00;13.25;;;;;11.38;74.10;100485.88;5073809;27;46547;-86
2022/10/10 04:34:22;;;;;;;;;17.75;13.25;;;;;11.01;74.52;100412.72;5082729;27;45429;-86
2022/10/10 04:36:47;;;;;;;;;19.50;18.00;;;;;11.32;74.51;100459.56;5094804;27;45735;-86
2022/10/10 04:39:13;;;;;;;;;17.25;14.50;;;;;10.56;74.37;100330.97;5059264;28;45467;-86
2022/10/10 04:41:38;;;;;;;;;14.25;12.75;;;;;11.17;75.28;100429.06;5090914;27;47918;-86
2022/10/10 04:44:03;;;;;;;;;11.25;11.00;;;;;11.52;74.35;100489.06;5078595;27;45493;-85
2022/10/10 04:46:29;;;;;;;;;13.50;11.00;;;;;11.49;74.59;100477.69;5083681;27;45711;-86
2022/10/10 04:48:54;;;;;;;;;15.00;13.00;;;;;11.58;75.08;100492.47;5091761;27;45367;-86
2022/10/10 04:51:19;;;;;;;;;12.25;12.25;;;;;11.76;75.56;100513.16;5077998;27;46000;-86
2022/10/10 04:53:45;;;;;;;;;13.00;12.00;;;;;11.58;75.04;100501.25;5076208;27;45380;-85
2022/10/10 04:56:10;;;;;;;;;20.00;12.50;;;;;11.22;74.75;100431.59;5075386;28;45503;-86
2022/10/10 04:58:35;;;;;;;;;15.25;12.75;;;;;11.42;74.79;100476.09;5074250;28;45348;-85
2022/10/10 05:01:01;;;;;;;;;15.50;14.50;;;;;11.11;76.13;100423.94;5073563;27;45354;-86
2022/10/10 05:03:26;;;;;;;;;15.25;13.75;;;;;10.89;76.25;100397.16;5057253;27;45646;-85
2022/10/10 05:05:52;;;;;;;;;16.50;14.50;;;;;11.12;76.22;100426.53;5059618;28;45272;-86
2022/10/10 05:08:18;;;;;;;;;11.75;10.00;;;;;11.58;76.54;100513.63;5078354;28;45826;-85
2022/10/10 05:10:45;;;;;;;;;19.00;16.00;;;;;11.34;76.79;100486.84;5077231;27;45339;-85
2022/10/10 05:13:12;;;;;;;;;13.25;13.25;;;;;11.52;77.37;100530.53;5078948;27;45388;-85
2022/10/10 05:15:38;;;;;;;;;12.00;11.25;;;;;11.49;77.38;100520.91;5082585;27;45382;-86
2022/10/10 05:18:04;;;;;;;;;13.00;11.50;;;;;11.30;77.64;100494.00;5079539;27;45541;-86
2022/10/10 05:20:30;;;;;;;;;14.00;12.25;;;;;11.14;77.51;100471.47;5079704;27;46895;-86
2022/10/10 05:22:56;;;;;;;;;10.00;10.00;;;;;11.08;77.44;100463.69;5080212;27;45290;-85
2022/10/10 05:25:21;;;;;;;;;13.50;12.50;;;;;10.12;77.94;100315.19;5097097;27;45260;-88
2022/10/10 05:27:46;;;;;;;;;13.00;13.00;;;;;10.59;77.53;100383.75;5070443;28;45232;-86
2022/10/10 05:30:12;;;;;;;;;14.25;12.75;;;;;11.01;77.83;100465.63;5059167;28;47489;-85
2022/10/10 05:32:38;;;;;;;;;12.50;12.25;;;;;10.67;77.86;100418.78;5077574;28;45469;-85
2022/10/10 05:35:04;;;;;;;;;17.50;15.75;;;;;10.96;78.33;100462.19;5059037;28;45725;-85
2022/10/10 05:37:30;;;;;;;;;12.25;11.25;;;;;10.45;77.64;100378.78;5059031;27;45222;-85
2022/10/10 05:39:55;;;;;;;;;13.75;13.75;;;;;10.18;77.57;100332.69;5058937;28;47188;-85
2022/10/10 05:42:21;;;;;;;;;21.25;19.00;;;;;10.94;77.89;100461.38;5058192;28;45481;-85
2022/10/10 05:44:46;;;;;;;;;16.50;12.00;;;;;11.07;77.63;100469.88;5086611;27;45496;-85
2022/10/10 05:47:11;;;;;;;;;17.00;13.50;;;;;11.26;77.71;100515.28;5097068;27;45389;-84
2022/10/10 05:49:37;;;;;;;;;10.00;9.25;;;;;11.36;77.64;100519.47;5097641;27;46555;-85
2022/10/10 05:52:02;;;;;;;;;14.00;13.25;;;;;11.27;77.83;100509.97;5097590;27;54966;-86
2022/10/10 05:54:28;;;;;;;;;17.50;16.50;;;;;10.09;77.53;100315.25;5098197;27;45446;-92
2022/10/10 05:56:53;;;;;;;;;19.25;14.50;;;;;10.88;77.80;100440.38;5080430;27;45579;-86
2022/10/10 05:59:18;;;;;;;;;14.50;12.25;;;;;10.84;77.88;100427.22;5079449;27;47575;-85
2022/10/10 06:01:44;;;;;;;;;17.25;16.25;;;;;11.03;78.17;100466.44;5097140;27;45342;-86
2022/10/10 06:04:09;;;;;;;;;15.50;12.25;;;;;10.16;78.59;100331.84;5079562;27;45348;-86
2022/10/10 06:06:35;;;;;;;;;13.25;13.00;;;;;11.09;78.09;100474.22;5098478;27;45542;-85
2022/10/10 06:09:00;;;;;;;;;14.50;12.25;;;;;10.82;78.37;100429.00;5084564;27;46210;-86
2022/10/10 06:11:26;;;;;;;;;11.75;11.75;;;;;10.89;78.15;100445.63;5079259;27;45359;-86
2022/10/10 06:13:55;;;;;;;;;14.25;11.50;;;;;10.82;78.15;100442.22;5081748;27;45410;-86
2022/10/10 06:16:25;;;;;;;;;13.50;12.00;;;;;11.17;78.38;100488.16;5087755;27;45539;-86
2022/10/10 06:18:51;;;;;;;;;13.75;12.75;;;;;11.40;77.88;100530.84;5066377;27;48156;-86
2022/10/10 06:21:17;;;;;;;;;14.00;13.25;;;;;10.78;79.02;100447.63;5071417;27;45498;-86
2022/10/10 06:23:43;;;;;;;;;15.25;14.75;;;;;11.40;78.61;100539.63;5084941;27;45339;-87
2022/10/10 06:26:10;;;;;;;;;17.50;17.50;;;;;10.98;78.28;100473.63;5076898;28;45581;-87
2022/10/10 06:28:35;;;;;;;;;7.00;4.75;;;;;10.90;78.46;100451.75;5078793;27;45617;-85
2022/10/10 06:31:03;;;;;;;;;13.50;13.50;;;;;11.55;78.97;100557.81;5077825;27;45406;-86
2022/10/10 06:33:29;;;;;;;;;14.00;9.75;;;;;11.65;78.53;100552.28;5085574;27;45518;-86
2022/10/10 06:35:54;;;;;;;;;14.50;14.00;;;;;11.13;78.34;100449.47;5086612;27;45460;-86
2022/10/10 06:38:19;;;;;;;;;16.50;16.50;;;;;11.19;77.76;100459.03;5058905;28;47182;-85
2022/10/10 06:40:46;;;;;;;;;14.50;14.50;;;;;11.19;78.13;100467.81;5094538;27;45337;-86
2022/10/10 06:43:13;;;;;;;;;24.25;18.50;;;;;11.02;77.31;100435.59;5087071;27;45275;-88
2022/10/10 06:45:41;;;;;;;;;17.75;16.50;;;;;11.60;77.94;100511.81;5086253;27;44836;-87
2022/10/10 06:48:07;;;;;;;;;18.00;15.50;;;;;11.60;78.05;100501.22;5074343;27;47035;-86
2022/10/10 06:50:33;;;;;;;;;17.75;15.75;;;;;10.91;77.09;100374.19;5084084;27;45316;-87
2022/10/10 06:52:58;;;;;;;;;19.25;15.50;;;;;11.55;77.35;100466.94;5085119;27;45386;-86
2022/10/10 06:55:23;;;;;;;;;18.25;14.00;;;;;12.24;76.91;100565.78;5068714;28;45324;-86
2022/10/10 06:57:49;;;;;;;;;18.25;14.75;;;;;11.77;76.04;100464.59;5092703;27;45598;-87
2022/10/10 07:00:15;;;;;;;;;20.50;18.75;;;;;12.55;75.24;100572.88;5071422;27;45450;-87
2022/10/10 07:02:41;;;;;;;;;17.25;16.50;;;;;12.00;74.78;100468.44;5074044;27;45516;-86
2022/10/10 07:05:14;;;;;;;;;12.75;12.00;;;;;11.76;74.68;100396.66;5065920;27;45407;-86
2022/10/10 07:07:40;;;;;;;;;10.75;9.75;;;;;12.55;73.25;100500.44;5072691;27;45832;-86
2022/10/10 07:10:07;;;;;;;;;17.25;16.50;;;;;13.62;71.69;100591.84;5088872;27;45501;-87
2022/10/10 07:12:33;;;;;;;;;19.75;16.50;;;;;13.12;71.73;100504.03;5077713;27;45522;-87
2022/10/10 07:14:59;;;;;;;;;14.00;12.00;;;;;12.84;71.32;100430.59;5067781;27;45749;-86
2022/10/10 07:17:24;;;;;;;;;18.25;14.75;;;;;13.22;70.65;100465.66;5088444;27;45455;-86
2022/10/10 07:19:49;;;;;;;;;14.50;13.00;;;;;13.61;70.50;100497.13;5094831;27;45295;-86
2022/10/10 07:22:15;;;;;;;;;19.25;16.50;;;;;14.12;68.97;100523.72;5078595;27;45470;-85
2022/10/10 07:24:40;;;;;;;;;18.25;17.00;;;;;14.88;68.73;100601.69;5081816;27;45379;-86
2022/10/10 07:27:05;;;;;;;;;15.25;14.50;;;;;14.16;67.52;100464.25;5063834;27;47585;-86
2022/10/10 07:29:31;;;;;;;;;10.50;10.50;;;;;14.72;66.96;100561.47;5084452;27;45441;-86
2022/10/10 07:31:57;;;;;;;;;16.00;14.75;;;;;13.61;67.26;100398.03;5075191;27;45469;-86
2022/10/10 07:34:22;;;;;;;;;16.50;15.75;;;;;14.67;67.30;100617.50;5067272;28;45533;-85
2022/10/10 07:36:49;;;;;;;;;12.75;12.00;;;;;14.57;67.70;100605.44;5065277;28;48007;-86
2022/10/10 07:39:24;;;;;;;;;16.25;13.50;;;;;14.32;67.68;100566.44;5088965;27;45479;-85
2022/10/10 07:41:52;;;;;;;;;13.75;13.75;;;;;13.76;69.43;100469.19;5065907;28;45391;-89
2022/10/10 07:44:18;;;;;;;;;17.25;12.25;;;;;14.72;70.58;100612.03;5081609;27;45561;-88
2022/10/10 07:46:44;;;;;;;;;15.00;14.25;;;;;14.73;68.90;100606.66;5080425;27;45334;-88
2022/10/10 07:49:09;;;;;;;;;12.50;12.00;;;;;13.77;69.71;100499.25;5058696;28;46069;-88
2022/10/10 07:51:41;;;;;;;;;16.00;13.00;;;;;13.67;69.37;100488.09;5079553;28;45267;-94
2022/10/10 07:54:08;;;;;;;;;14.00;13.50;;;;;13.31;69.64;100449.41;5063216;28;45270;-92
2022/10/10 07:56:34;;;;;;;;;21.50;16.00;;;;;14.39;73.49;100630.88;5072653;28;48499;-91
2022/10/10 07:58:59;;;;;;;;;19.25;13.75;;;;;13.72;72.51;100530.44;5081356;27;45454;-90
2022/10/10 08:01:25;;;;;;;;;12.75;10.50;;;;;13.80;70.94;100533.69;5086770;27;45504;-89
2022/10/10 08:03:50;;;;;;;;;13.25;13.25;;;;;13.81;72.20;100530.13;5074416;27;45656;-90
2022/10/10 08:06:16;;;;;;;;;15.00;14.00;;;;;13.64;71.72;100473.13;5089190;27;46065;-90
2022/10/10 08:08:46;;;;;;;;;14.00;14.00;;;;;14.53;72.34;100617.09;5066217;27;45839;-90
2022/10/10 08:11:11;;;;;;;;;16.25;14.75;;;;;13.74;70.50;100486.09;5069763;27;45378;-89
2022/10/10 08:13:39;;;;;;;;;13.50;13.50;;;;;13.54;71.08;100409.78;5084931;28;45166;-90
2022/10/10 08:16:04;;;;;;;;;14.00;13.50;;;;;14.57;71.68;100528.31;5068386;28;46425;-89
2022/10/10 08:18:29;;;;;;;;;17.50;17.50;;;;;14.54;70.74;100441.53;5081008;27;45631;-89
2022/10/10 08:21:05;;;;;;;;;8.75;5.50;;;;;15.01;68.45;100451.25;5070823;27;45285;-90
2022/10/10 08:23:30;;;;;;;;;11.25;10.75;;;;;16.05;70.68;100525.09;5082365;27;45516;-90
2022/10/10 08:26:03;;;;;;;;;12.25;10.50;;;;;16.09;65.63;100461.84;5069322;27;47071;-89
2022/10/10 08:28:30;;;;;;;;;16.00;14.00;;;;;16.94;64.50;100535.34;5082808;27;45679;-89
2022/10/10 08:30:55;;;;;;;;;14.00;12.25;;;;;17.35;65.18;100575.25;5066667;27;45353;-89
2022/10/10 08:33:25;;;;;;;;;17.50;15.25;;;;;17.43;61.80;100554.38;5075170;27;45612;-90
2022/10/10 08:35:51;;;;;;;;;15.25;12.00;;;;;18.09;66.10;100649.16;5077611;27;47881;-88
2022/10/10 08:38:16;;;;;;;;;12.50;12.25;;;;;17.49;64.87;100524.69;5092820;27;45315;-89
2022/10/10 08:40:48;;;;;;;;;10.75;9.25;;;;;17.91;65.24;100598.31;5092197;27;45623;-90
2022/10/10 08:43:32;;;;;;;;;13.00;13.00;;;;;17.53;64.21;100499.53;5077932;27;45496;-90
2022/10/10 08:46:04;;;;;;;;;14.75;12.00;;;;;17.78;64.03;100522.38;5070813;27;47408;-89
2022/10/10 08:48:30;;;;;;;;;15.00;14.25;;;;;18.09;62.87;100556.44;5084285;27;45332;-89
2022/10/10 08:51:03;;;;;;;;;11.00;11.00;;;;;18.20;61.20;100546.97;5074193;28;45323;-90
2022/10/10 08:53:35;;;;;;;;;14.00;12.00;;;;;18.42;65.57;100552.09;5064123;27;45482;-89
2022/10/10 08:56:05;;;;;;;;;10.00;8.75;;;;;19.26;61.90;100663.63;5076028;27;48417;-90
2022/10/10 08:58:42;;;;;;;;;13.00;13.00;;;;;18.81;64.00;100574.94;5066786;27;45350;-89
2022/10/10 09:01:14;;;;;;;;;14.50;13.25;;;;;19.42;61.89;100669.00;5077734;27;45265;-89
2022/10/10 09:03:49;;;;;;;;;13.75;11.50;;;;;19.41;61.79;100667.28;5085084;27;45378;-89
2022/10/10 09:06:18;;;;;;;;;14.75;11.50;;;;;19.72;61.22;100661.03;5074908;27;46244;-90
2022/10/10 09:09:08;;;;;;;;;11.50;11.50;;;;;19.33;61.68;100488.19;5066190;28;45560;-90
2022/10/10 09:11:40;;;;;;;;;12.00;12.00;;;;;21.04;62.58;100655.03;5079096;27;45436;-89
2022/10/10 09:14:36;;;;;;;;;13.25;10.00;;;;;20.97;59.39;100623.28;5081376;27;45201;-91
2022/10/10 09:17:28;;;;;;;;;10.75;10.50;;;;;20.40;59.11;100525.63;5094038;27;46440;-91
2022/10/10 09:20:02;;;;;;;;;13.25;13.00;;;;;21.35;55.30;100665.66;5077486;27;45430;-92
2022/10/10 09:22:32;;;;;;;;;13.25;12.25;;;;;21.10;56.91;100643.06;5084137;27;45370;-89
2022/10/10 09:25:07;;;;;;;;;13.50;10.75;;;;;21.19;59.13;100680.09;5075714;27;45251;-89
2022/10/10 09:27:38;;;;;;;;;11.50;11.50;;;;;19.70;57.44;100443.97;5068011;27;46943;-89
2022/10/10 09:30:17;;;;;;;;;10.50;9.25;;;;;20.82;58.02;100666.28;5071038;27;45336;-88
2022/10/10 09:32:56;;;;;;;;;10.25;9.00;;;;;19.86;58.02;100551.22;5088964;27;45516;-88
2022/10/10 09:35:26;;;;;;;;;7.00;7.00;;;;;19.27;58.72;100516.19;5078017;27;45499;-88
2022/10/10 09:38:01;;;;;;;;;10.00;10.00;;;;;19.69;59.90;100629.03;5080828;27;46660;-86
2022/10/10 09:40:33;;;;;;;;;8.75;8.75;;;;;19.32;59.76;100599.84;5091430;27;45283;-81
2022/10/10 09:43:08;;;;;;;;;9.00;9.00;;;;;19.72;61.44;100709.28;5084008;27;45546;-82
2022/10/10 09:45:40;;;;;;;;;9.75;9.00;;;;;19.43;61.20;100702.88;5088486;27;45457;-81
2022/10/10 09:48:09;;;;;;;;;11.75;10.75;;;;;18.71;60.44;100597.84;5085480;27;46263;-81
2022/10/10 09:50:36;;;;;;;;;11.75;10.00;;;;;18.71;62.21;100635.31;5083481;27;45528;-81
2022/10/10 09:53:01;;;;;;;;;8.25;8.00;;;;;18.64;62.36;100667.75;5080307;27;45580;-82
2022/10/10 09:55:32;;;;;;;;;11.00;8.50;;;;;18.86;63.54;100719.31;5095524;27;45560;-81
2022/10/10 09:58:10;;;;;;;;;10.75;9.50;;;;;17.95;62.73;100588.38;5085135;27;45524;-81
2022/10/10 10:00:36;;;;;;;;;12.75;10.00;;;;;18.46;64.73;100682.06;5088895;27;45236;-86
2022/10/10 10:03:08;;;;;;;;;13.50;11.00;;;;;18.58;64.25;100732.28;5082379;27;45450;-87
2022/10/10 10:05:34;;;;;;;;;13.75;11.00;;;;;17.04;64.71;100483.28;5078821;27;45434;-88
2022/10/10 10:07:59;;;;;;;;;11.25;10.25;;;;;17.52;64.10;100563.72;5072328;27;46973;-86
2022/10/10 10:10:28;;;;;;;;;13.25;10.00;;;;;18.03;63.82;100638.78;5062280;27;45503;-87
2022/10/10 10:12:55;;;;;;;;;11.25;11.00;;;;;17.65;63.35;100578.22;5072847;28;45365;-87
2022/10/10 10:15:27;;;;;;;;;9.00;8.00;;;;;18.58;66.04;100731.44;5074050;27;45636;-88
2022/10/10 10:18:19;;;;;;;;;10.75;8.75;;;;;18.10;63.48;100666.97;5092713;27;45456;-87
2022/10/10 10:20:47;;;;;;;;;11.00;10.00;;;;;18.10;62.99;100667.81;5096278;27;45411;-87
2022/10/10 10:23:34;;;;;;;;;9.00;8.50;;;;;16.92;64.27;100467.84;5097471;27;45334;-88
2022/10/10 10:26:05;;;;;;;;;8.75;8.75;;;;;17.98;65.80;100667.56;5092302;27;45584;-87
2022/10/10 10:28:39;;;;;;;;;12.50;8.50;;;;;18.10;64.14;100691.03;5081048;27;46221;-87
2022/10/10 10:31:05;;;;;;;;;10.00;9.50;;;;;18.42;64.80;100752.75;5077883;27;45506;-87
2022/10/10 10:33:39;;;;;;;;;10.75;10.75;;;;;18.41;64.95;100753.69;5099284;27;45342;-87
2022/10/10 10:36:08;;;;;;;;;9.50;9.50;;;;;18.43;64.76;100755.34;5082960;28;45400;-88
2022/10/10 10:38:43;;;;;;;;;9.25;7.75;;;;;18.27;65.48;100717.78;5069623;27;47267;-86
2022/10/10 10:41:26;;;;;;;;;7.50;7.50;;;;;18.60;65.67;100756.31;5066307;27;45608;-87
2022/10/10 10:43:52;;;;;;;;;11.50;11.00;;;;;18.70;66.62;100762.91;5083182;27;45428;-86
2022/10/10 10:46:26;;;;;;;;;14.50;12.00;;;;;18.80;64.60;100758.81;5059673;28;45354;-87
2022/10/10 10:49:13;;;;;;;;;11.00;11.00;;;;;18.92;64.55;100769.91;5086034;27;46119;-87
2022/10/10 10:52:09;;;;;;;;;13.75;13.50;;;;;17.68;63.66;100562.03;5081688;27;45290;-87
2022/10/10 10:54:58;;;;;;;;;11.25;11.00;;;;;18.73;64.63;100719.06;5066704;27;45390;-87
2022/10/10 10:57:29;;;;;;;;;16.25;14.00;;;;;19.22;64.86;100782.59;5092763;27;45533;-87
2022/10/10 11:00:07;;;;;;;;;8.25;8.25;;;;;19.32;65.22;100782.03;5084448;27;45706;-86
2022/10/10 11:02:40;;;;;;;;;9.75;8.50;;;;;19.18;63.83;100728.34;5066257;27;45529;-87
2022/10/10 11:05:30;;;;;;;;;13.00;11.75;;;;;19.76;62.28;100785.09;5068199;27;45319;-86
2022/10/10 11:08:24;;;;;;;;;12.75;11.75;;;;;19.90;63.38;100763.75;5085324;27;45537;-91
2022/10/10 11:11:31;;;;;;;;;10.25;8.00;;;;;19.30;62.18;100625.84;5063176;27;47169;-89
2022/10/10 11:14:03;;;;;;;;;12.00;11.00;;;;;20.62;62.56;100793.66;5082363;27;45297;-87
2022/10/10 11:16:37;;;;;;;;;11.50;11.00;;;;;20.30;62.01;100705.13;5068846;28;45458;-89
2022/10/10 11:19:11;;;;;;;;;15.25;12.00;;;;;21.01;61.58;100777.94;5073274;27;45433;-89